DEMKM EDLP-EDLP
Flight info
| Callsign | DEMKM |
|---|---|
| Flight time | 0h 12m |
| Altitude | 2100 |
| Route | DCT |
| Aircraft | C172/L-S/G |
Departure
| Time | 2026-05-06 17:04 |
|---|---|
| Airport | Paderborn Lippstadt Airport (EDLP) |
Arrival
| Time | 2026-05-06 17:17 |
|---|---|
| Airport | Paderborn Lippstadt Airport (EDLP) |
| Time | Latitude | Longitude | Altitude | Speed | Heading |
|---|---|---|---|---|---|
| 2026-05-06 16:58 | 51.60983 | 8.61610 | 726 ft | 0 kts | 53° |
| 2026-05-06 17:01 | 51.61001 | 8.61625 | 726 ft | 8 kts | 356° |
| 2026-05-06 17:01 | 51.61071 | 8.61565 | 723 ft | 16 kts | 326° |
| 2026-05-06 17:01 | 51.61164 | 8.61519 | 712 ft | 12 kts | 49° |
| 2026-05-06 17:01 | 51.61217 | 8.61646 | 712 ft | 18 kts | 57° |
| 2026-05-06 17:02 | 51.61285 | 8.61812 | 716 ft | 16 kts | 57° |
| 2026-05-06 17:02 | 51.61341 | 8.61951 | 712 ft | 13 kts | 54° |
| 2026-05-06 17:02 | 51.61403 | 8.62016 | 712 ft | 12 kts | 339° |
| 2026-05-06 17:02 | 51.61431 | 8.61975 | 707 ft | 0 kts | 293° |
| 2026-05-06 17:03 | 51.61436 | 8.61949 | 703 ft | 17 kts | 284° |
| 2026-05-06 17:03 | 51.61432 | 8.61713 | 703 ft | 26 kts | 253° |
| 2026-05-06 17:03 | 51.61259 | 8.61272 | 720 ft | 67 kts | 241° |
| 2026-05-06 17:04 | 51.60980 | 8.60581 | 887 ft | 78 kts | 240° |
| 2026-05-06 17:04 | 51.60784 | 8.59765 | 1097 ft | 82 kts | 279° |
| 2026-05-06 17:04 | 51.61222 | 8.59134 | 1247 ft | 93 kts | 324° |
| 2026-05-06 17:04 | 51.61753 | 8.58481 | 1417 ft | 98 kts | 322° |
| 2026-05-06 17:05 | 51.62292 | 8.57817 | 1670 ft | 95 kts | 321° |
| 2026-05-06 17:05 | 51.62809 | 8.57149 | 1898 ft | 96 kts | 322° |
| 2026-05-06 17:05 | 51.63360 | 8.56465 | 2023 ft | 106 kts | 322° |
| 2026-05-06 17:05 | 51.63944 | 8.55742 | 2057 ft | 104 kts | 322° |
| 2026-05-06 17:06 | 51.64515 | 8.55031 | 2079 ft | 104 kts | 322° |
| 2026-05-06 17:06 | 51.65091 | 8.54308 | 2108 ft | 105 kts | 322° |
| 2026-05-06 17:06 | 51.65669 | 8.53591 | 2140 ft | 104 kts | 325° |
| 2026-05-06 17:06 | 51.66373 | 8.53387 | 2218 ft | 111 kts | 11° |
| 2026-05-06 17:07 | 51.67175 | 8.53658 | 2204 ft | 122 kts | 11° |
| 2026-05-06 17:07 | 51.67991 | 8.54036 | 2283 ft | 122 kts | 28° |
| 2026-05-06 17:07 | 51.68617 | 8.54929 | 2341 ft | 124 kts | 53° |
| 2026-05-06 17:07 | 51.69141 | 8.56039 | 2321 ft | 122 kts | 50° |
| 2026-05-06 17:08 | 51.69746 | 8.57028 | 2351 ft | 124 kts | 44° |
| 2026-05-06 17:08 | 51.70379 | 8.57952 | 2403 ft | 125 kts | 40° |
| 2026-05-06 17:08 | 51.71024 | 8.58838 | 2377 ft | 118 kts | 40° |
| 2026-05-06 17:08 | 51.71618 | 8.59667 | 2391 ft | 110 kts | 41° |
| 2026-05-06 17:09 | 51.72215 | 8.60471 | 2358 ft | 110 kts | 36° |
| 2026-05-06 17:09 | 51.72854 | 8.61087 | 2377 ft | 107 kts | 29° |
| 2026-05-06 17:09 | 51.73512 | 8.61657 | 2319 ft | 110 kts | 20° |
| 2026-05-06 17:09 | 51.74240 | 8.61663 | 2353 ft | 107 kts | 346° |
| 2026-05-06 17:10 | 51.74973 | 8.61732 | 2322 ft | 109 kts | 33° |
| 2026-05-06 17:10 | 51.75360 | 8.62741 | 2329 ft | 109 kts | 76° |
| 2026-05-06 17:10 | 51.75549 | 8.63942 | 2289 ft | 111 kts | 75° |
| 2026-05-06 17:10 | 51.75731 | 8.65149 | 2264 ft | 111 kts | 77° |
| 2026-05-06 17:11 | 51.75884 | 8.66347 | 2289 ft | 106 kts | 82° |
| 2026-05-06 17:11 | 51.75688 | 8.67407 | 2321 ft | 103 kts | 148° |
| 2026-05-06 17:11 | 51.75016 | 8.67345 | 2289 ft | 105 kts | 205° |
| 2026-05-06 17:11 | 51.74337 | 8.66842 | 2302 ft | 109 kts | 207° |
| 2026-05-06 17:12 | 51.73647 | 8.66311 | 2314 ft | 111 kts | 207° |
| 2026-05-06 17:12 | 51.72938 | 8.65756 | 2300 ft | 114 kts | 204° |
| 2026-05-06 17:12 | 51.72215 | 8.65192 | 2241 ft | 119 kts | 209° |
| 2026-05-06 17:12 | 51.71498 | 8.64546 | 2102 ft | 116 kts | 212° |
| 2026-05-06 17:13 | 51.70867 | 8.63890 | 2165 ft | 107 kts | 218° |
| 2026-05-06 17:13 | 51.70292 | 8.63134 | 2185 ft | 106 kts | 223° |
| 2026-05-06 17:13 | 51.69754 | 8.62351 | 2211 ft | 104 kts | 224° |
| 2026-05-06 17:13 | 51.69186 | 8.61639 | 2250 ft | 100 kts | 210° |
| 2026-05-06 17:14 | 51.68518 | 8.61480 | 2310 ft | 101 kts | 172° |
| 2026-05-06 17:14 | 51.67836 | 8.61823 | 2271 ft | 103 kts | 157° |
| 2026-05-06 17:14 | 51.67175 | 8.62318 | 2202 ft | 101 kts | 156° |
| 2026-05-06 17:14 | 51.66558 | 8.62785 | 2091 ft | 96 kts | 156° |
| 2026-05-06 17:15 | 51.65956 | 8.63280 | 1921 ft | 96 kts | 154° |
| 2026-05-06 17:15 | 51.65375 | 8.63758 | 1823 ft | 93 kts | 153° |
| 2026-05-06 17:15 | 51.64792 | 8.64251 | 1693 ft | 94 kts | 154° |
| 2026-05-06 17:15 | 51.64213 | 8.64733 | 1532 ft | 92 kts | 155° |
| 2026-05-06 17:16 | 51.63634 | 8.65159 | 1319 ft | 88 kts | 160° |
| 2026-05-06 17:16 | 51.63075 | 8.65410 | 1145 ft | 83 kts | 182° |
| 2026-05-06 17:16 | 51.62703 | 8.64887 | 977 ft | 72 kts | 244° |
| 2026-05-06 17:16 | 51.62447 | 8.64212 | 866 ft | 70 kts | 237° |
| 2026-05-06 17:17 | 51.62186 | 8.63540 | 796 ft | 72 kts | 237° |
| 2026-05-06 17:17 | 51.61917 | 8.62871 | 743 ft | 70 kts | 237° |
| 2026-05-06 17:17 | 51.61689 | 8.62317 | 691 ft | 45 kts | 238° |
| 2026-05-06 17:17 | 51.61556 | 8.61986 | 698 ft | 28 kts | 237° |
| 2026-05-06 17:18 | 51.61466 | 8.61812 | 700 ft | 12 kts | 172° |
| 2026-05-06 17:18 | 51.61440 | 8.61880 | 703 ft | 5 kts | 95° |
| 2026-05-06 17:18 | 51.61440 | 8.61922 | 707 ft | 2 kts | 89° |
| 2026-05-06 17:18 | 51.61436 | 8.61970 | 707 ft | 12 kts | 112° |
| 2026-05-06 17:19 | 51.61391 | 8.62024 | 713 ft | 0 kts | 156° |
| 2026-05-06 17:19 | 51.61264 | 8.61989 | 722 ft | 20 kts | 191° |
| 2026-05-06 17:20 | 51.61175 | 8.61904 | 726 ft | 14 kts | 238° |
| 2026-05-06 17:20 | 51.61132 | 8.61786 | 726 ft | 11 kts | 232° |
| 2026-05-06 17:20 | 51.61085 | 8.61708 | 726 ft | 9 kts | 187° |
| 2026-05-06 17:20 | 51.61041 | 8.61750 | 726 ft | 7 kts | 151° |
| 2026-05-06 17:21 | 51.61002 | 8.61753 | 726 ft | 5 kts | 215° |
| 2026-05-06 17:21 | 51.61005 | 8.61702 | 726 ft | 5 kts | 244° |